sensor_id;sensor_type;location;lat;lon;timestamp;P1;durP1;ratioP1;P2;durP2;ratioP2
1811;SDS011;904;47.814;11.134;2022-12-08T00:01:36;12.05;;;9.60;;
1811;SDS011;904;47.814;11.134;2022-12-08T00:04:03;11.70;;;9.48;;
1811;SDS011;904;47.814;11.134;2022-12-08T00:06:33;12.52;;;8.82;;
1811;SDS011;904;47.814;11.134;2022-12-08T00:09:21;9.43;;;7.50;;
1811;SDS011;904;47.814;11.134;2022-12-08T00:11:53;14.85;;;9.65;;
1811;SDS011;904;47.814;11.134;2022-12-08T00:14:24;13.23;;;10.32;;
1811;SDS011;904;47.814;11.134;2022-12-08T00:16:52;12.35;;;9.73;;
1811;SDS011;904;47.814;11.134;2022-12-08T00:19:25;11.27;;;9.32;;
1811;SDS011;904;47.814;11.134;2022-12-08T00:21:52;14.38;;;10.18;;
1811;SDS011;904;47.814;11.134;2022-12-08T00:24:20;23.10;;;13.52;;
1811;SDS011;904;47.814;11.134;2022-12-08T00:26:48;13.68;;;10.48;;
1811;SDS011;904;47.814;11.134;2022-12-08T00:29:16;21.00;;;12.18;;
1811;SDS011;904;47.814;11.134;2022-12-08T00:31:47;24.05;;;14.65;;
1811;SDS011;904;47.814;11.134;2022-12-08T00:34:16;21.60;;;13.88;;
1811;SDS011;904;47.814;11.134;2022-12-08T00:36:45;18.48;;;11.85;;
1811;SDS011;904;47.814;11.134;2022-12-08T00:39:13;19.70;;;12.20;;
1811;SDS011;904;47.814;11.134;2022-12-08T00:41:41;16.92;;;12.45;;
1811;SDS011;904;47.814;11.134;2022-12-08T00:44:26;16.80;;;11.07;;
1811;SDS011;904;47.814;11.134;2022-12-08T00:46:54;18.75;;;11.82;;
1811;SDS011;904;47.814;11.134;2022-12-08T00:49:21;23.60;;;12.80;;
1811;SDS011;904;47.814;11.134;2022-12-08T00:51:49;20.67;;;12.35;;
1811;SDS011;904;47.814;11.134;2022-12-08T00:54:17;15.75;;;10.95;;
1811;SDS011;904;47.814;11.134;2022-12-08T00:56:44;15.70;;;9.90;;
1811;SDS011;904;47.814;11.134;2022-12-08T00:59:12;16.35;;;9.73;;
1811;SDS011;904;47.814;11.134;2022-12-08T01:01:39;17.15;;;9.52;;
1811;SDS011;904;47.814;11.134;2022-12-08T01:04:09;14.65;;;9.75;;
1811;SDS011;904;47.814;11.134;2022-12-08T01:06:39;15.43;;;10.57;;
1811;SDS011;904;47.814;11.134;2022-12-08T01:09:07;14.80;;;9.95;;
1811;SDS011;904;47.814;11.134;2022-12-08T01:11:35;15.30;;;10.77;;
1811;SDS011;904;47.814;11.134;2022-12-08T01:14:02;17.30;;;10.65;;
1811;SDS011;904;47.814;11.134;2022-12-08T01:16:31;13.65;;;9.48;;
1811;SDS011;904;47.814;11.134;2022-12-08T01:18:59;20.27;;;10.05;;
1811;SDS011;904;47.814;11.134;2022-12-08T01:21:28;15.40;;;10.60;;
1811;SDS011;904;47.814;11.134;2022-12-08T01:23:55;15.23;;;10.60;;
1811;SDS011;904;47.814;11.134;2022-12-08T01:26:24;15.15;;;11.30;;
1811;SDS011;904;47.814;11.134;2022-12-08T01:28:53;17.15;;;11.02;;
1811;SDS011;904;47.814;11.134;2022-12-08T01:31:20;23.27;;;11.68;;
1811;SDS011;904;47.814;11.134;2022-12-08T01:33:50;16.20;;;12.07;;
1811;SDS011;904;47.814;11.134;2022-12-08T01:36:19;14.82;;;10.63;;
1811;SDS011;904;47.814;11.134;2022-12-08T01:38:48;15.63;;;11.20;;
1811;SDS011;904;47.814;11.134;2022-12-08T01:41:17;15.13;;;10.35;;
1811;SDS011;904;47.814;11.134;2022-12-08T01:43:53;16.98;;;11.20;;
1811;SDS011;904;47.814;11.134;2022-12-08T01:46:25;13.77;;;10.80;;
1811;SDS011;904;47.814;11.134;2022-12-08T01:48:54;19.45;;;12.02;;
1811;SDS011;904;47.814;11.134;2022-12-08T01:51:25;14.50;;;11.15;;
1811;SDS011;904;47.814;11.134;2022-12-08T01:53:55;15.93;;;11.15;;
1811;SDS011;904;47.814;11.134;2022-12-08T01:56:25;17.30;;;11.77;;
1811;SDS011;904;47.814;11.134;2022-12-08T01:58:56;21.95;;;12.95;;
1811;SDS011;904;47.814;11.134;2022-12-08T02:01:24;21.55;;;11.60;;
1811;SDS011;904;47.814;11.134;2022-12-08T02:03:53;19.92;;;12.32;;
1811;SDS011;904;47.814;11.134;2022-12-08T02:06:23;23.05;;;13.88;;
1811;SDS011;904;47.814;11.134;2022-12-08T02:08:58;17.38;;;12.40;;
1811;SDS011;904;47.814;11.134;2022-12-08T02:11:26;17.38;;;12.75;;
1811;SDS011;904;47.814;11.134;2022-12-08T02:13:54;16.35;;;10.88;;
1811;SDS011;904;47.814;11.134;2022-12-08T02:16:26;18.23;;;11.82;;
1811;SDS011;904;47.814;11.134;2022-12-08T02:19:13;15.95;;;10.40;;
1811;SDS011;904;47.814;11.134;2022-12-08T02:21:57;18.38;;;11.15;;
1811;SDS011;904;47.814;11.134;2022-12-08T02:24:33;16.48;;;11.00;;
1811;SDS011;904;47.814;11.134;2022-12-08T02:27:18;17.55;;;11.05;;
1811;SDS011;904;47.814;11.134;2022-12-08T02:30:06;23.92;;;13.98;;
1811;SDS011;904;47.814;11.134;2022-12-08T02:33:04;23.45;;;12.25;;
1811;SDS011;904;47.814;11.134;2022-12-08T02:35:57;22.48;;;12.50;;
1811;SDS011;904;47.814;11.134;2022-12-08T02:38:37;21.40;;;10.95;;
1811;SDS011;904;47.814;11.134;2022-12-08T02:41:19;23.67;;;12.52;;
1811;SDS011;904;47.814;11.134;2022-12-08T02:43:54;26.50;;;13.68;;
1811;SDS011;904;47.814;11.134;2022-12-08T02:46:27;24.15;;;14.88;;
1811;SDS011;904;47.814;11.134;2022-12-08T02:48:57;19.75;;;11.82;;
1811;SDS011;904;47.814;11.134;2022-12-08T02:51:27;18.35;;;12.70;;
1811;SDS011;904;47.814;11.134;2022-12-08T02:53:54;18.50;;;10.88;;
1811;SDS011;904;47.814;11.134;2022-12-08T02:56:35;18.05;;;13.05;;
1811;SDS011;904;47.814;11.134;2022-12-08T02:59:30;26.85;;;13.48;;
1811;SDS011;904;47.814;11.134;2022-12-08T03:02:14;17.85;;;10.73;;
1811;SDS011;904;47.814;11.134;2022-12-08T03:04:52;26.42;;;12.45;;
1811;SDS011;904;47.814;11.134;2022-12-08T03:07:30;19.52;;;12.68;;
1811;SDS011;904;47.814;11.134;2022-12-08T03:10:06;18.58;;;11.73;;
1811;SDS011;904;47.814;11.134;2022-12-08T03:12:38;27.05;;;14.05;;
1811;SDS011;904;47.814;11.134;2022-12-08T03:15:12;25.20;;;13.93;;
1811;SDS011;904;47.814;11.134;2022-12-08T03:17:43;23.13;;;13.85;;
1811;SDS011;904;47.814;11.134;2022-12-08T03:20:15;17.23;;;12.95;;
1811;SDS011;904;47.814;11.134;2022-12-08T03:22:56;19.25;;;10.60;;
1811;SDS011;904;47.814;11.134;2022-12-08T03:25:26;13.40;;;8.93;;
1811;SDS011;904;47.814;11.134;2022-12-08T03:27:56;12.00;;;8.98;;
1811;SDS011;904;47.814;11.134;2022-12-08T03:30:24;12.45;;;9.70;;
1811;SDS011;904;47.814;11.134;2022-12-08T03:32:57;15.80;;;10.63;;
1811;SDS011;904;47.814;11.134;2022-12-08T03:35:29;12.65;;;9.20;;
1811;SDS011;904;47.814;11.134;2022-12-08T03:38:02;17.98;;;12.18;;
1811;SDS011;904;47.814;11.134;2022-12-08T03:40:36;16.83;;;10.63;;
1811;SDS011;904;47.814;11.134;2022-12-08T03:43:06;21.70;;;12.93;;
1811;SDS011;904;47.814;11.134;2022-12-08T03:45:33;17.65;;;11.68;;
1811;SDS011;904;47.814;11.134;2022-12-08T03:48:00;17.67;;;12.57;;
1811;SDS011;904;47.814;11.134;2022-12-08T03:50:28;19.77;;;11.57;;
1811;SDS011;904;47.814;11.134;2022-12-08T03:52:55;20.40;;;11.60;;
1811;SDS011;904;47.814;11.134;2022-12-08T03:55:23;20.17;;;11.68;;
1811;SDS011;904;47.814;11.134;2022-12-08T03:57:50;18.70;;;13.10;;
1811;SDS011;904;47.814;11.134;2022-12-08T04:00:24;17.58;;;10.88;;
1811;SDS011;904;47.814;11.134;2022-12-08T04:02:51;15.85;;;10.98;;
1811;SDS011;904;47.814;11.134;2022-12-08T04:05:18;16.23;;;10.23;;
1811;SDS011;904;47.814;11.134;2022-12-08T04:07:45;18.27;;;10.85;;
1811;SDS011;904;47.814;11.134;2022-12-08T04:10:12;18.95;;;11.15;;
1811;SDS011;904;47.814;11.134;2022-12-08T04:12:41;16.40;;;11.57;;
1811;SDS011;904;47.814;11.134;2022-12-08T04:15:09;18.73;;;10.98;;
1811;SDS011;904;47.814;11.134;2022-12-08T04:17:36;19.27;;;11.65;;
1811;SDS011;904;47.814;11.134;2022-12-08T04:20:08;17.40;;;11.77;;
1811;SDS011;904;47.814;11.134;2022-12-08T04:22:36;15.80;;;10.98;;
1811;SDS011;904;47.814;11.134;2022-12-08T04:25:05;17.65;;;11.32;;
1811;SDS011;904;47.814;11.134;2022-12-08T04:27:32;16.98;;;10.85;;
1811;SDS011;904;47.814;11.134;2022-12-08T04:30:01;15.73;;;10.38;;
1811;SDS011;904;47.814;11.134;2022-12-08T04:32:32;16.33;;;10.95;;
1811;SDS011;904;47.814;11.134;2022-12-08T04:35:01;15.70;;;10.80;;
1811;SDS011;904;47.814;11.134;2022-12-08T04:37:29;19.35;;;12.90;;
1811;SDS011;904;47.814;11.134;2022-12-08T04:39:56;22.40;;;11.30;;
1811;SDS011;904;47.814;11.134;2022-12-08T04:42:23;17.40;;;11.20;;
1811;SDS011;904;47.814;11.134;2022-12-08T04:44:52;17.45;;;12.02;;
1811;SDS011;904;47.814;11.134;2022-12-08T04:47:21;18.88;;;11.68;;
1811;SDS011;904;47.814;11.134;2022-12-08T04:49:53;18.05;;;12.00;;
1811;SDS011;904;47.814;11.134;2022-12-08T04:52:21;14.60;;;11.70;;
1811;SDS011;904;47.814;11.134;2022-12-08T04:54:48;21.35;;;12.13;;
1811;SDS011;904;47.814;11.134;2022-12-08T04:57:17;17.40;;;10.57;;
1811;SDS011;904;47.814;11.134;2022-12-08T04:59:44;17.67;;;10.85;;
1811;SDS011;904;47.814;11.134;2022-12-08T05:02:16;17.60;;;11.20;;
1811;SDS011;904;47.814;11.134;2022-12-08T05:04:45;17.50;;;10.13;;
1811;SDS011;904;47.814;11.134;2022-12-08T05:07:20;17.92;;;10.75;;
1811;SDS011;904;47.814;11.134;2022-12-08T05:09:47;16.27;;;10.40;;
1811;SDS011;904;47.814;11.134;2022-12-08T05:12:14;13.00;;;11.13;;
1811;SDS011;904;47.814;11.134;2022-12-08T05:14:46;17.95;;;11.30;;
1811;SDS011;904;47.814;11.134;2022-12-08T05:17:18;14.52;;;10.07;;
1811;SDS011;904;47.814;11.134;2022-12-08T05:19:47;14.20;;;9.05;;
1811;SDS011;904;47.814;11.134;2022-12-08T05:22:14;14.80;;;10.57;;
1811;SDS011;904;47.814;11.134;2022-12-08T05:24:43;13.52;;;11.15;;
1811;SDS011;904;47.814;11.134;2022-12-08T05:27:15;15.75;;;11.10;;
1811;SDS011;904;47.814;11.134;2022-12-08T05:29:42;15.25;;;10.55;;
1811;SDS011;904;47.814;11.134;2022-12-08T05:32:11;15.43;;;10.52;;
1811;SDS011;904;47.814;11.134;2022-12-08T05:34:38;14.13;;;10.00;;
1811;SDS011;904;47.814;11.134;2022-12-08T05:37:08;12.57;;;8.77;;
1811;SDS011;904;47.814;11.134;2022-12-08T05:39:35;12.23;;;9.30;;
1811;SDS011;904;47.814;11.134;2022-12-08T05:42:03;14.45;;;9.63;;
1811;SDS011;904;47.814;11.134;2022-12-08T05:44:30;12.70;;;9.07;;
1811;SDS011;904;47.814;11.134;2022-12-08T05:46:57;11.10;;;8.05;;
1811;SDS011;904;47.814;11.134;2022-12-08T05:49:24;15.68;;;10.05;;
1811;SDS011;904;47.814;11.134;2022-12-08T05:51:55;12.70;;;9.30;;
1811;SDS011;904;47.814;11.134;2022-12-08T05:54:24;16.98;;;11.32;;
1811;SDS011;904;47.814;11.134;2022-12-08T05:56:51;13.20;;;8.77;;
1811;SDS011;904;47.814;11.134;2022-12-08T05:59:18;13.88;;;9.50;;
1811;SDS011;904;47.814;11.134;2022-12-08T06:01:45;15.05;;;10.95;;
1811;SDS011;904;47.814;11.134;2022-12-08T06:04:12;17.40;;;11.32;;
1811;SDS011;904;47.814;11.134;2022-12-08T06:06:39;16.42;;;10.85;;
1811;SDS011;904;47.814;11.134;2022-12-08T06:09:06;20.98;;;11.88;;
1811;SDS011;904;47.814;11.134;2022-12-08T06:11:35;20.35;;;12.57;;
1811;SDS011;904;47.814;11.134;2022-12-08T06:14:08;18.27;;;12.95;;
1811;SDS011;904;47.814;11.134;2022-12-08T06:16:45;14.98;;;10.40;;
1811;SDS011;904;47.814;11.134;2022-12-08T06:19:18;14.32;;;9.82;;
1811;SDS011;904;47.814;11.134;2022-12-08T06:21:45;17.23;;;12.02;;
1811;SDS011;904;47.814;11.134;2022-12-08T06:24:12;16.58;;;10.70;;
1811;SDS011;904;47.814;11.134;2022-12-08T06:26:41;17.83;;;10.40;;
1811;SDS011;904;47.814;11.134;2022-12-08T06:29:08;12.18;;;8.65;;
1811;SDS011;904;47.814;11.134;2022-12-08T06:31:35;13.05;;;8.80;;
1811;SDS011;904;47.814;11.134;2022-12-08T06:34:03;16.08;;;9.82;;
1811;SDS011;904;47.814;11.134;2022-12-08T06:36:35;18.70;;;13.50;;
1811;SDS011;904;47.814;11.134;2022-12-08T06:39:02;21.52;;;14.13;;
1811;SDS011;904;47.814;11.134;2022-12-08T06:41:32;17.42;;;11.77;;
1811;SDS011;904;47.814;11.134;2022-12-08T06:44:21;23.55;;;14.50;;
1811;SDS011;904;47.814;11.134;2022-12-08T06:46:48;24.25;;;14.30;;
1811;SDS011;904;47.814;11.134;2022-12-08T06:49:15;23.25;;;13.95;;
1811;SDS011;904;47.814;11.134;2022-12-08T06:51:42;20.02;;;12.30;;
1811;SDS011;904;47.814;11.134;2022-12-08T06:54:09;16.27;;;12.30;;
1811;SDS011;904;47.814;11.134;2022-12-08T06:56:39;18.58;;;12.40;;
1811;SDS011;904;47.814;11.134;2022-12-08T06:59:06;20.90;;;12.38;;
1811;SDS011;904;47.814;11.134;2022-12-08T07:01:34;15.43;;;11.13;;
1811;SDS011;904;47.814;11.134;2022-12-08T07:04:01;16.77;;;10.23;;
1811;SDS011;904;47.814;11.134;2022-12-08T07:06:30;14.15;;;10.48;;
1811;SDS011;904;47.814;11.134;2022-12-08T07:08:58;11.88;;;9.48;;
1811;SDS011;904;47.814;11.134;2022-12-08T07:11:25;19.20;;;11.95;;
1811;SDS011;904;47.814;11.134;2022-12-08T07:13:55;14.05;;;10.32;;
1811;SDS011;904;47.814;11.134;2022-12-08T07:16:27;16.27;;;10.35;;
1811;SDS011;904;47.814;11.134;2022-12-08T07:19:13;13.10;;;9.25;;
1811;SDS011;904;47.814;11.134;2022-12-08T07:21:47;15.63;;;11.20;;
1811;SDS011;904;47.814;11.134;2022-12-08T07:24:14;16.33;;;12.27;;
1811;SDS011;904;47.814;11.134;2022-12-08T07:26:43;14.70;;;11.05;;
1811;SDS011;904;47.814;11.134;2022-12-08T07:29:10;15.15;;;11.15;;
1811;SDS011;904;47.814;11.134;2022-12-08T07:31:48;14.80;;;10.05;;
1811;SDS011;904;47.814;11.134;2022-12-08T07:34:15;13.20;;;9.75;;
1811;SDS011;904;47.814;11.134;2022-12-08T07:36:48;14.40;;;10.48;;
1811;SDS011;904;47.814;11.134;2022-12-08T07:39:20;17.08;;;11.90;;
1811;SDS011;904;47.814;11.134;2022-12-08T07:41:52;11.98;;;8.25;;
1811;SDS011;904;47.814;11.134;2022-12-08T07:44:19;13.32;;;9.60;;
1811;SDS011;904;47.814;11.134;2022-12-08T07:46:55;18.00;;;9.68;;
1811;SDS011;904;47.814;11.134;2022-12-08T07:49:23;13.30;;;9.65;;
1811;SDS011;904;47.814;11.134;2022-12-08T07:51:55;15.68;;;9.90;;
1811;SDS011;904;47.814;11.134;2022-12-08T07:54:26;20.98;;;9.13;;
1811;SDS011;904;47.814;11.134;2022-12-08T07:56:55;12.95;;;8.90;;
1811;SDS011;904;47.814;11.134;2022-12-08T07:59:23;13.00;;;9.88;;
1811;SDS011;904;47.814;11.134;2022-12-08T08:01:52;13.23;;;9.02;;
1811;SDS011;904;47.814;11.134;2022-12-08T08:04:20;12.95;;;9.93;;
1811;SDS011;904;47.814;11.134;2022-12-08T08:06:47;11.98;;;9.30;;
1811;SDS011;904;47.814;11.134;2022-12-08T08:09:14;13.18;;;9.57;;
1811;SDS011;904;47.814;11.134;2022-12-08T08:11:42;12.70;;;8.85;;
1811;SDS011;904;47.814;11.134;2022-12-08T08:14:08;13.95;;;9.90;;
1811;SDS011;904;47.814;11.134;2022-12-08T08:16:36;17.48;;;11.68;;
1811;SDS011;904;47.814;11.134;2022-12-08T08:19:03;14.10;;;10.00;;
1811;SDS011;904;47.814;11.134;2022-12-08T08:21:31;12.27;;;8.70;;
1811;SDS011;904;47.814;11.134;2022-12-08T08:23:58;13.10;;;8.75;;
1811;SDS011;904;47.814;11.134;2022-12-08T08:26:25;11.15;;;9.13;;
1811;SDS011;904;47.814;11.134;2022-12-08T08:28:52;12.75;;;9.70;;
1811;SDS011;904;47.814;11.134;2022-12-08T08:31:24;11.02;;;8.48;;
1811;SDS011;904;47.814;11.134;2022-12-08T08:33:52;12.85;;;9.18;;
1811;SDS011;904;47.814;11.134;2022-12-08T08:36:19;12.27;;;8.88;;
1811;SDS011;904;47.814;11.134;2022-12-08T08:38:48;11.23;;;8.00;;
1811;SDS011;904;47.814;11.134;2022-12-08T08:41:15;10.80;;;8.43;;
1811;SDS011;904;47.814;11.134;2022-12-08T08:43:42;11.07;;;7.75;;
1811;SDS011;904;47.814;11.134;2022-12-08T08:46:09;10.23;;;7.90;;
1811;SDS011;904;47.814;11.134;2022-12-08T08:48:36;12.48;;;8.45;;
1811;SDS011;904;47.814;11.134;2022-12-08T08:51:07;12.63;;;8.27;;
1811;SDS011;904;47.814;11.134;2022-12-08T08:53:35;10.52;;;8.85;;
1811;SDS011;904;47.814;11.134;2022-12-08T08:56:08;11.38;;;9.18;;
1811;SDS011;904;47.814;11.134;2022-12-08T08:58:41;12.95;;;9.02;;
1811;SDS011;904;47.814;11.134;2022-12-08T09:01:14;11.27;;;8.32;;
1811;SDS011;904;47.814;11.134;2022-12-08T09:03:42;12.02;;;7.90;;
1811;SDS011;904;47.814;11.134;2022-12-08T09:06:09;9.65;;;7.75;;
1811;SDS011;904;47.814;11.134;2022-12-08T09:08:37;9.23;;;7.38;;
1811;SDS011;904;47.814;11.134;2022-12-08T09:11:04;9.98;;;8.35;;
1811;SDS011;904;47.814;11.134;2022-12-08T09:13:38;8.27;;;6.70;;
1811;SDS011;904;47.814;11.134;2022-12-08T09:16:05;11.73;;;8.90;;
1811;SDS011;904;47.814;11.134;2022-12-08T09:18:34;9.10;;;7.50;;
1811;SDS011;904;47.814;11.134;2022-12-08T09:21:04;8.27;;;6.80;;
1811;SDS011;904;47.814;11.134;2022-12-08T09:23:32;8.30;;;7.03;;
1811;SDS011;904;47.814;11.134;2022-12-08T09:26:00;9.20;;;7.53;;
1811;SDS011;904;47.814;11.134;2022-12-08T09:28:33;8.97;;;6.53;;
1811;SDS011;904;47.814;11.134;2022-12-08T09:31:05;8.90;;;6.83;;
1811;SDS011;904;47.814;11.134;2022-12-08T09:33:32;10.53;;;7.87;;
1811;SDS011;904;47.814;11.134;2022-12-08T09:36:00;9.40;;;7.20;;
1811;SDS011;904;47.814;11.134;2022-12-08T09:38:28;10.70;;;7.90;;
1811;SDS011;904;47.814;11.134;2022-12-08T09:41:00;8.05;;;6.07;;
1811;SDS011;904;47.814;11.134;2022-12-08T09:43:37;8.20;;;6.37;;
1811;SDS011;904;47.814;11.134;2022-12-08T09:46:19;8.55;;;6.18;;
1811;SDS011;904;47.814;11.134;2022-12-08T09:48:48;10.85;;;7.82;;
1811;SDS011;904;47.814;11.134;2022-12-08T09:51:19;10.37;;;6.10;;
1811;SDS011;904;47.814;11.134;2022-12-08T09:53:52;8.23;;;6.43;;
1811;SDS011;904;47.814;11.134;2022-12-08T09:56:29;10.97;;;6.63;;
1811;SDS011;904;47.814;11.134;2022-12-08T09:59:00;8.30;;;6.30;;
1811;SDS011;904;47.814;11.134;2022-12-08T10:01:32;7.53;;;6.10;;
1811;SDS011;904;47.814;11.134;2022-12-08T10:04:07;7.50;;;6.03;;
1811;SDS011;904;47.814;11.134;2022-12-08T10:06:43;7.70;;;6.17;;
1811;SDS011;904;47.814;11.134;2022-12-08T10:09:20;7.90;;;5.10;;
1811;SDS011;904;47.814;11.134;2022-12-08T10:11:56;7.30;;;5.60;;
1811;SDS011;904;47.814;11.134;2022-12-08T10:14:30;6.80;;;4.90;;
1811;SDS011;904;47.814;11.134;2022-12-08T10:17:07;5.53;;;4.33;;
1811;SDS011;904;47.814;11.134;2022-12-08T10:19:42;5.27;;;4.10;;
1811;SDS011;904;47.814;11.134;2022-12-08T10:22:12;14.03;;;4.70;;
1811;SDS011;904;47.814;11.134;2022-12-08T10:24:47;7.20;;;4.50;;
1811;SDS011;904;47.814;11.134;2022-12-08T10:27:21;8.63;;;5.20;;
1811;SDS011;904;47.814;11.134;2022-12-08T10:29:48;7.70;;;4.47;;
1811;SDS011;904;47.814;11.134;2022-12-08T10:32:22;4.97;;;4.33;;
1811;SDS011;904;47.814;11.134;2022-12-08T10:35:00;6.80;;;5.10;;
1811;SDS011;904;47.814;11.134;2022-12-08T10:37:29;5.33;;;3.30;;
1811;SDS011;904;47.814;11.134;2022-12-08T10:40:00;6.27;;;4.70;;
1811;SDS011;904;47.814;11.134;2022-12-08T10:42:35;5.30;;;4.40;;
1811;SDS011;904;47.814;11.134;2022-12-08T10:45:19;6.37;;;4.33;;
1811;SDS011;904;47.814;11.134;2022-12-08T10:47:56;4.80;;;3.70;;
1811;SDS011;904;47.814;11.134;2022-12-08T10:50:30;5.37;;;3.80;;
1811;SDS011;904;47.814;11.134;2022-12-08T10:53:00;5.97;;;4.10;;
1811;SDS011;904;47.814;11.134;2022-12-08T10:55:38;5.13;;;4.20;;
1811;SDS011;904;47.814;11.134;2022-12-08T10:58:21;6.07;;;4.67;;
1811;SDS011;904;47.814;11.134;2022-12-08T11:00:53;6.40;;;4.00;;
1811;SDS011;904;47.814;11.134;2022-12-08T11:03:25;5.60;;;3.70;;
1811;SDS011;904;47.814;11.134;2022-12-08T11:05:56;5.35;;;3.55;;
1811;SDS011;904;47.814;11.134;2022-12-08T11:08:26;4.82;;;3.95;;
1811;SDS011;904;47.814;11.134;2022-12-08T11:10:56;8.27;;;5.55;;
1811;SDS011;904;47.814;11.134;2022-12-08T11:13:24;5.85;;;4.55;;
1811;SDS011;904;47.814;11.134;2022-12-08T11:15:54;4.80;;;4.20;;
1811;SDS011;904;47.814;11.134;2022-12-08T11:18:28;5.40;;;4.38;;
1811;SDS011;904;47.814;11.134;2022-12-08T11:21:09;7.63;;;4.80;;
1811;SDS011;904;47.814;11.134;2022-12-08T11:23:38;6.55;;;4.55;;
1811;SDS011;904;47.814;11.134;2022-12-08T11:26:16;6.25;;;4.57;;
1811;SDS011;904;47.814;11.134;2022-12-08T11:28:49;6.15;;;4.78;;
1811;SDS011;904;47.814;11.134;2022-12-08T11:31:20;6.50;;;4.43;;
1811;SDS011;904;47.814;11.134;2022-12-08T11:34:01;7.65;;;5.35;;
1811;SDS011;904;47.814;11.134;2022-12-08T11:36:29;10.35;;;5.05;;
1811;SDS011;904;47.814;11.134;2022-12-08T11:38:59;8.13;;;5.40;;
1811;SDS011;904;47.814;11.134;2022-12-08T11:41:30;7.55;;;5.10;;
1811;SDS011;904;47.814;11.134;2022-12-08T11:44:04;8.10;;;5.63;;
1811;SDS011;904;47.814;11.134;2022-12-08T11:46:41;6.68;;;5.25;;
1811;SDS011;904;47.814;11.134;2022-12-08T11:49:14;6.63;;;4.80;;
1811;SDS011;904;47.814;11.134;2022-12-08T11:51:42;8.02;;;5.57;;
1811;SDS011;904;47.814;11.134;2022-12-08T11:54:17;8.27;;;4.93;;
1811;SDS011;904;47.814;11.134;2022-12-08T11:56:50;8.75;;;6.07;;
1811;SDS011;904;47.814;11.134;2022-12-08T11:59:23;7.72;;;6.10;;
1811;SDS011;904;47.814;11.134;2022-12-08T12:01:55;7.22;;;5.80;;
1811;SDS011;904;47.814;11.134;2022-12-08T12:04:25;8.05;;;5.75;;
1811;SDS011;904;47.814;11.134;2022-12-08T12:13:07;8.63;;;6.38;;
1811;SDS011;904;47.814;11.134;2022-12-08T12:15:50;11.60;;;8.00;;
1811;SDS011;904;47.814;11.134;2022-12-08T12:18:37;11.07;;;8.55;;
1811;SDS011;904;47.814;11.134;2022-12-08T12:21:12;11.48;;;10.07;;
1811;SDS011;904;47.814;11.134;2022-12-08T12:23:43;9.37;;;7.00;;
1811;SDS011;904;47.814;11.134;2022-12-08T12:26:18;10.87;;;7.70;;
1811;SDS011;904;47.814;11.134;2022-12-08T12:28:50;7.80;;;6.20;;
1811;SDS011;904;47.814;11.134;2022-12-08T12:31:22;8.13;;;6.20;;
1811;SDS011;904;47.814;11.134;2022-12-08T12:33:53;9.80;;;6.60;;
1811;SDS011;904;47.814;11.134;2022-12-08T12:36:24;10.20;;;7.30;;
1811;SDS011;904;47.814;11.134;2022-12-08T12:38:52;10.20;;;6.87;;
1811;SDS011;904;47.814;11.134;2022-12-08T12:41:30;12.80;;;9.90;;
1811;SDS011;904;47.814;11.134;2022-12-08T12:47:12;9.47;;;7.07;;
1811;SDS011;904;47.814;11.134;2022-12-08T12:50:05;10.20;;;8.90;;
1811;SDS011;904;47.814;11.134;2022-12-08T12:52:43;11.77;;;9.50;;
1811;SDS011;904;47.814;11.134;2022-12-08T12:55:21;9.30;;;7.67;;
1811;SDS011;904;47.814;11.134;2022-12-08T13:04:28;15.40;;;9.02;;
1811;SDS011;904;47.814;11.134;2022-12-08T13:06:59;16.00;;;8.48;;
1811;SDS011;904;47.814;11.134;2022-12-08T13:09:31;11.80;;;9.30;;
1811;SDS011;904;47.814;11.134;2022-12-08T13:12:18;12.35;;;8.35;;
1811;SDS011;904;47.814;11.134;2022-12-08T13:14:49;9.85;;;7.53;;
1811;SDS011;904;47.814;11.134;2022-12-08T13:17:21;9.98;;;7.20;;
1811;SDS011;904;47.814;11.134;2022-12-08T13:19:53;16.67;;;8.60;;
1811;SDS011;904;47.814;11.134;2022-12-08T13:31:38;10.70;;;7.72;;
1811;SDS011;904;47.814;11.134;2022-12-08T13:34:06;10.23;;;7.20;;
1811;SDS011;904;47.814;11.134;2022-12-08T13:36:39;14.80;;;9.27;;
1811;SDS011;904;47.814;11.134;2022-12-08T13:39:11;13.80;;;8.20;;
1811;SDS011;904;47.814;11.134;2022-12-08T13:41:50;14.73;;;7.82;;
1811;SDS011;904;47.814;11.134;2022-12-08T13:44:30;16.30;;;8.43;;
1811;SDS011;904;47.814;11.134;2022-12-08T13:47:02;14.32;;;8.68;;
1811;SDS011;904;47.814;11.134;2022-12-08T13:49:33;10.98;;;8.02;;
1811;SDS011;904;47.814;11.134;2022-12-08T13:52:04;13.02;;;7.35;;
1811;SDS011;904;47.814;11.134;2022-12-08T13:54:38;13.50;;;8.38;;
1811;SDS011;904;47.814;11.134;2022-12-08T13:57:17;10.52;;;6.93;;
1811;SDS011;904;47.814;11.134;2022-12-08T13:59:51;11.70;;;7.32;;
1811;SDS011;904;47.814;11.134;2022-12-08T14:02:19;11.75;;;7.60;;
1811;SDS011;904;47.814;11.134;2022-12-08T14:04:53;11.80;;;8.20;;
1811;SDS011;904;47.814;11.134;2022-12-08T14:07:21;13.75;;;8.50;;
1811;SDS011;904;47.814;11.134;2022-12-08T14:09:49;12.45;;;8.57;;
1811;SDS011;904;47.814;11.134;2022-12-08T14:12:20;9.48;;;6.70;;
1811;SDS011;904;47.814;11.134;2022-12-08T14:14:50;11.55;;;6.78;;
1811;SDS011;904;47.814;11.134;2022-12-08T14:17:19;12.23;;;8.07;;
1811;SDS011;904;47.814;11.134;2022-12-08T14:19:52;19.08;;;9.30;;
1811;SDS011;904;47.814;11.134;2022-12-08T14:22:22;12.70;;;6.90;;
1811;SDS011;904;47.814;11.134;2022-12-08T14:24:50;15.98;;;7.93;;
1811;SDS011;904;47.814;11.134;2022-12-08T14:27:21;10.07;;;8.18;;
1811;SDS011;904;47.814;11.134;2022-12-08T14:29:59;9.50;;;6.55;;
1811;SDS011;904;47.814;11.134;2022-12-08T14:32:28;10.40;;;7.82;;
1811;SDS011;904;47.814;11.134;2022-12-08T14:34:59;11.15;;;7.40;;
1811;SDS011;904;47.814;11.134;2022-12-08T14:37:37;14.60;;;7.97;;
1811;SDS011;904;47.814;11.134;2022-12-08T14:40:11;14.88;;;10.20;;
1811;SDS011;904;47.814;11.134;2022-12-08T14:42:49;14.60;;;8.52;;
1811;SDS011;904;47.814;11.134;2022-12-08T14:45:18;12.00;;;7.97;;
1811;SDS011;904;47.814;11.134;2022-12-08T14:47:48;12.00;;;7.80;;
1811;SDS011;904;47.814;11.134;2022-12-08T14:50:36;12.70;;;8.38;;
1811;SDS011;904;47.814;11.134;2022-12-08T14:53:11;13.25;;;9.05;;
1811;SDS011;904;47.814;11.134;2022-12-08T14:55:42;13.10;;;8.80;;
1811;SDS011;904;47.814;11.134;2022-12-08T14:58:17;11.88;;;7.50;;
1811;SDS011;904;47.814;11.134;2022-12-08T15:00:52;12.95;;;9.43;;
1811;SDS011;904;47.814;11.134;2022-12-08T15:03:22;14.13;;;9.52;;
1811;SDS011;904;47.814;11.134;2022-12-08T15:05:54;18.33;;;8.15;;
1811;SDS011;904;47.814;11.134;2022-12-08T15:08:23;14.73;;;8.95;;
1811;SDS011;904;47.814;11.134;2022-12-08T15:13:45;15.98;;;10.43;;
1811;SDS011;904;47.814;11.134;2022-12-08T15:16:21;13.57;;;10.55;;
1811;SDS011;904;47.814;11.134;2022-12-08T15:18:59;15.13;;;10.30;;
1811;SDS011;904;47.814;11.134;2022-12-08T15:21:32;13.32;;;10.13;;
1811;SDS011;904;47.814;11.134;2022-12-08T15:24:03;13.77;;;10.30;;
1811;SDS011;904;47.814;11.134;2022-12-08T15:26:33;14.73;;;9.95;;
1811;SDS011;904;47.814;11.134;2022-12-08T15:29:12;16.33;;;10.43;;
1811;SDS011;904;47.814;11.134;2022-12-08T15:31:46;16.83;;;10.57;;
1811;SDS011;904;47.814;11.134;2022-12-08T15:34:14;20.17;;;12.45;;
1811;SDS011;904;47.814;11.134;2022-12-08T15:36:41;16.15;;;12.43;;
1811;SDS011;904;47.814;11.134;2022-12-08T15:39:17;18.13;;;11.30;;
1811;SDS011;904;47.814;11.134;2022-12-08T15:41:49;19.88;;;12.23;;
1811;SDS011;904;47.814;11.134;2022-12-08T15:44:18;18.95;;;13.55;;
1811;SDS011;904;47.814;11.134;2022-12-08T15:46:47;19.55;;;12.20;;
1811;SDS011;904;47.814;11.134;2022-12-08T15:49:15;20.05;;;13.02;;
1811;SDS011;904;47.814;11.134;2022-12-08T15:51:48;21.45;;;13.00;;